Mb Linter 2 — UDAE — position and weather

sailwx.info

Track history (hours):
 
Tides and Currents Weather Stations Pressure Air Temp Water Temp Dewpoint Dewpoint Depression Visibility Wind Speed Wind Dir Waves Ship Positions

Mb Linter 2

Last reported at 2018-Jun-21 05:48 UTC. Time now 2018-Jun-21 08:44 UTC.
Position N 45°10' E 036°34'.

Length 26 m; draft 3.3 m.

Type: Tug. MMSI: 273383840.

Date/timePositionNaut miles runAvg speedWind from/ knotsBaromVisibWave heightAir tempDewpointWater temp
2018-Jun-21 05:48N 45°10' E 036°34'0 0.3
2018-Jun-21 05:17N 45°09' E 036°34'0 0.1
2018-Jun-21 03:59N 45°09' E 036°34'0 0.2
2018-Jun-21 03:30N 45°09' E 036°34'1 2.7
2018-Jun-21 03:00N 45°09' E 036°35'0 0.0
2018-Jun-21 00:03N 45°09' E 036°35'0 0.0
2018-Jun-21 00:00N 45°09' E 036°35'0 0.0
2018-Jun-20 23:17N 45°09' E 036°35'2 4.5
2018-Jun-20 22:56N 45°09' E 036°33'4 9.0
2018-Jun-20 22:27N 45°13' E 036°29'4 8.3
2018-Jun-20 22:00N 45°16' E 036°28'4 7.4
2018-Jun-20 21:30N 45°19' E 036°32'4 8.4
2018-Jun-20 21:01N 45°21' E 036°37'2 4.3
2018-Jun-20 20:30N 45°20' E 036°40'3 6.5
2018-Jun-20 20:00N 45°20' E 036°36'8 6.8
2018-Jun-20 18:47N 45°13' E 036°29'3 9.3
2018-Jun-20 18:28N 45°11' E 036°32'4 2.7
2018-Jun-20 17:03N 45°08' E 036°34'1 1.1
2018-Jun-20 15:44N 45°09' E 036°33'8 8.8
2018-Jun-20 14:50N 45°16' E 036°28'3 8.5
2018-Jun-20 14:29N 45°18' E 036°30'4 9.0
2018-Jun-20 14:00N 45°20' E 036°36'3 6.7
2018-Jun-20 13:30N 45°20' E 036°40'0 0.0
2018-Jun-20 13:00N 45°20' E 036°40'1 1.6
2018-Jun-20 12:30N 45°21' E 036°39'3 6.8
2018-Jun-20 12:00N 45°20' E 036°35'5 8.8
2018-Jun-20 11:27N 45°17' E 036°29'4 8.1
2018-Jun-20 10:59N 45°13' E 036°29'5 1.4
2018-Jun-20 07:30N 45°10' E 036°35'0 0.0
2018-Jun-20 06:57N 45°10' E 036°35'0 0.0
2018-Jun-20 05:39N 45°10' E 036°35'0 0.1
2018-Jun-20 05:20N 45°10' E 036°35'1 1.1
2018-Jun-20 04:29N 45°09' E 036°34'0 0.3
2018-Jun-20 04:00N 45°09' E 036°34'1 1.4
2018-Jun-20 03:30N 45°09' E 036°34'1 0.2
2018-Jun-19 20:07N 45°07' E 036°33'1 0.7
2018-Jun-19 18:27N 45°08' E 036°34'1 0.3
2018-Jun-19 14:31N 45°09' E 036°35'0 0.0
2018-Jun-19 14:13N 45°09' E 036°35'0 0.0
2018-Jun-19 13:52N 45°09' E 036°35'0 0.0
2018-Jun-19 13:25N 45°09' E 036°35'0 0.0
2018-Jun-19 10:28N 45°09' E 036°35'0 0.0
2018-Jun-19 07:58N 45°09' E 036°35'0 0.0
2018-Jun-18 14:21N 45°09' E 036°35'0 0.0
2018-Jun-18 13:51N 45°09' E 036°35'0 0.0
2018-Jun-18 13:27N 45°09' E 036°35'0 0.0
2018-Jun-18 12:51N 45°09' E 036°35'0 0.0
2018-Jun-18 12:27N 45°09' E 036°35'0 0.0
2018-Jun-18 11:12N 45°09' E 036°35'0 0.0
2018-Jun-18 10:57N 45°09' E 036°35'1 0.0
2018-Jun-16 17:34N 45°08' E 036°36'0 0.0
2018-Jun-16 14:28N 45°08' E 036°36'0 0.0
2018-Jun-16 13:25N 45°08' E 036°36'0 0.0
2018-Jun-16 09:22N 45°08' E 036°36'0 0.0
2018-Jun-16 07:22N 45°08' E 036°36'0 0.0
2018-Jun-16 06:58N 45°08' E 036°36'0 0.0
2018-Jun-16 04:48N 45°08' E 036°36'0 0.0
2018-Jun-16 04:12N 45°08' E 036°36'0 0.1
2018-Jun-16 03:57N 45°08' E 036°36'0 0.0
2018-Jun-15 22:30N 45°08' E 036°36'0 0.0
2018-Jun-15 22:00N 45°08' E 036°36'0 0.0
2018-Jun-15 21:21N 45°08' E 036°36'0 0.0
2018-Jun-15 20:54N 45°08' E 036°36'0 0.0
2018-Jun-15 19:45N 45°08' E 036°36'0 0.0
2018-Jun-15 15:42N 45°08' E 036°36'0 0.0
2018-Jun-15 15:27N 45°08' E 036°36'0 0.0
2018-Jun-15 12:48N 45°08' E 036°36'0 0.0
2018-Jun-15 11:18N 45°08' E 036°36'0 0.0
2018-Jun-15 06:21N 45°08' E 036°36'0 0.0
2018-Jun-15 06:00N 45°08' E 036°36'1 1.1
2018-Jun-15 05:29N 45°08' E 036°35'1 0.7
2018-Jun-15 04:40N 45°08' E 036°36'0 0.0
2018-Jun-15 04:28N 45°08' E 036°36'0 0.0
2018-Jun-15 03:58N 45°08' E 036°36'0 0.0
2018-Jun-15 03:22N 45°08' E 036°36'0 0.0
2018-Jun-15 02:58N 45°08' E 036°36'0 0.0
2018-Jun-15 02:10N 45°08' E 036°36'0 0.0
2018-Jun-15 01:52N 45°08' E 036°36'0 0.0
2018-Jun-15 01:22N 45°08' E 036°36'0 0.0
2018-Jun-15 00:22N 45°08' E 036°36'0 0.0
2018-Jun-14 23:58N 45°08' E 036°36'0 0.0
2018-Jun-14 23:28N 45°08' E 036°36'0 0.0
2018-Jun-14 22:59N 45°08' E 036°36'0 0.0
2018-Jun-14 22:28N 45°08' E 036°36'0 0.0
2018-Jun-14 21:10N 45°08' E 036°36'0 0.2
2018-Jun-14 20:50N 45°08' E 036°36'2 5.4
2018-Jun-14 20:27N 45°09' E 036°33'4 9.4
2018-Jun-14 20:00N 45°12' E 036°29'4 8.7
2018-Jun-14 19:30N 45°16' E 036°27'1 0.1
2018-Jun-14 07:43N 45°17' E 036°25'4 7.5
2018-Jun-14 07:10N 45°13' E 036°28'2 9.4
2018-Jun-14 06:58N 45°11' E 036°29'4 9.2
2018-Jun-14 06:31N 45°08' E 036°33'1 0.1
2018-Jun-13 18:35N 45°09' E 036°34'0 0.1
2018-Jun-13 18:27N 45°09' E 036°34'1 2.8
2018-Jun-13 17:59N 45°08' E 036°36'0 0.0
2018-Jun-13 17:19N 45°08' E 036°36'0 0.0
2018-Jun-13 17:00N 45°08' E 036°36'0 0.0
2018-Jun-13 16:28N 45°08' E 036°36'0 0.0
2018-Jun-13 15:57N 45°08' E 036°36'0 0.0
2018-Jun-13 15:19N 45°08' E 036°36'0 0.0
2018-Jun-13 15:00N 45°08' E 036°36'0 0.0
2018-Jun-13 14:30N 45°08' E 036°36'0 0.0
2018-Jun-13 14:00N 45°08' E 036°36'0 0.0
2018-Jun-13 13:30N 45°08' E 036°36'0 0.0
2018-Jun-13 13:00N 45°08' E 036°36'0 0.0
2018-Jun-13 12:30N 45°08' E 036°36'3 6.5
2018-Jun-13 12:00N 45°10' E 036°32'2 3.0
2018-Jun-13 11:30N 45°08' E 036°32'0 0.8
2018-Jun-13 11:00N 45°08' E 036°33'2 3.4
2018-Jun-13 10:30N 45°07' E 036°33'2 3.6
2018-Jun-13 09:53N 45°08' E 036°36'0 0.2
2018-Jun-13 09:30N 45°08' E 036°36'0 0.0
2018-Jun-13 06:15N 45°08' E 036°36'0 0.0
2018-Jun-13 05:45N 45°08' E 036°36'0 0.0
2018-Jun-13 05:30N 45°08' E 036°36'0 0.0
2018-Jun-13 04:57N 45°08' E 036°36'1 0.8
2018-Jun-13 03:49N 45°08' E 036°34'1 3.4
2018-Jun-13 03:30N 45°08' E 036°33'2 3.6
2018-Jun-13 02:56N 45°08' E 036°36'0 0.0
2018-Jun-13 02:29N 45°08' E 036°36'0 0.0
2018-Jun-13 01:53N 45°08' E 036°36'0 0.0
2018-Jun-13 01:29N 45°08' E 036°36'0 0.0
2018-Jun-13 00:59N 45°08' E 036°36'0 0.0
2018-Jun-13 00:29N 45°08' E 036°36'0 0.0
2018-Jun-12 23:59N 45°08' E 036°36'0 0.0
2018-Jun-12 15:08N 45°08' E 036°36'0 0.0
2018-Jun-12 13:20N 45°08' E 036°36'0 0.0
2018-Jun-12 12:56N 45°08' E 036°36'1 2.0
2018-Jun-12 12:30N 45°07' E 036°35'1 1.1
2018-Jun-12 11:36N 45°07' E 036°34'0 0.2
2018-Jun-12 10:57N 45°07' E 036°34'2 3.9
2018-Jun-12 10:28N 45°08' E 036°36'0 0.0
2018-Jun-11 16:33N 45°08' E 036°36'0 0.0
2018-Jun-11 16:04N 45°08' E 036°36'0 0.6
2018-Jun-11 15:14N 45°08' E 036°35'0 0.1
2018-Jun-11 09:14N 45°08' E 036°36'  
Track history (hours):
 
Tides and Currents Weather Stations Pressure Air Temp Water Temp Dewpoint Dewpoint Depression Visibility Wind Speed Wind Dir Waves Ship Positions

Mb Linter 2

Last reported at 2018-Jun-21 05:48 UTC. Time now 2018-Jun-21 08:44 UTC.
Position N 45°10' E 036°34'.

Length 26 m; draft 3.3 m.

Type: Tug. MMSI: 273383840.

Date/timePositionNaut miles runAvg speedWind from/ knotsBaromVisibWave heightAir tempDewpointWater temp
2018-Jun-21 05:48N 45°10' E 036°34'0 0.3
2018-Jun-21 05:17N 45°09' E 036°34'0 0.1
2018-Jun-21 03:59N 45°09' E 036°34'0 0.2
2018-Jun-21 03:30N 45°09' E 036°34'1 2.7
2018-Jun-21 03:00N 45°09' E 036°35'0 0.0
2018-Jun-21 00:03N 45°09' E 036°35'0 0.0
2018-Jun-21 00:00N 45°09' E 036°35'0 0.0
2018-Jun-20 23:17N 45°09' E 036°35'2 4.5
2018-Jun-20 22:56N 45°09' E 036°33'4 9.0
2018-Jun-20 22:27N 45°13' E 036°29'4 8.3
2018-Jun-20 22:00N 45°16' E 036°28'4 7.4
2018-Jun-20 21:30N 45°19' E 036°32'4 8.4
2018-Jun-20 21:01N 45°21' E 036°37'2 4.3
2018-Jun-20 20:30N 45°20' E 036°40'3 6.5
2018-Jun-20 20:00N 45°20' E 036°36'8 6.8
2018-Jun-20 18:47N 45°13' E 036°29'3 9.3
2018-Jun-20 18:28N 45°11' E 036°32'4 2.7
2018-Jun-20 17:03N 45°08' E 036°34'1 1.1
2018-Jun-20 15:44N 45°09' E 036°33'8 8.8
2018-Jun-20 14:50N 45°16' E 036°28'3 8.5
2018-Jun-20 14:29N 45°18' E 036°30'4 9.0
2018-Jun-20 14:00N 45°20' E 036°36'3 6.7
2018-Jun-20 13:30N 45°20' E 036°40'0 0.0
2018-Jun-20 13:00N 45°20' E 036°40'1 1.6
2018-Jun-20 12:30N 45°21' E 036°39'3 6.8
2018-Jun-20 12:00N 45°20' E 036°35'5 8.8
2018-Jun-20 11:27N 45°17' E 036°29'4 8.1
2018-Jun-20 10:59N 45°13' E 036°29'5 1.4
2018-Jun-20 07:30N 45°10' E 036°35'0 0.0
2018-Jun-20 06:57N 45°10' E 036°35'0 0.0
2018-Jun-20 05:39N 45°10' E 036°35'0 0.1
2018-Jun-20 05:20N 45°10' E 036°35'1 1.1
2018-Jun-20 04:29N 45°09' E 036°34'0 0.3
2018-Jun-20 04:00N 45°09' E 036°34'1 1.4
2018-Jun-20 03:30N 45°09' E 036°34'1 0.2
2018-Jun-19 20:07N 45°07' E 036°33'1 0.7
2018-Jun-19 18:27N 45°08' E 036°34'1 0.3
2018-Jun-19 14:31N 45°09' E 036°35'0 0.0
2018-Jun-19 14:13N 45°09' E 036°35'0 0.0
2018-Jun-19 13:52N 45°09' E 036°35'0 0.0
2018-Jun-19 13:25N 45°09' E 036°35'0 0.0
2018-Jun-19 10:28N 45°09' E 036°35'0 0.0
2018-Jun-19 07:58N 45°09' E 036°35'0 0.0
2018-Jun-18 14:21N 45°09' E 036°35'0 0.0
2018-Jun-18 13:51N 45°09' E 036°35'0 0.0
2018-Jun-18 13:27N 45°09' E 036°35'0 0.0
2018-Jun-18 12:51N 45°09' E 036°35'0 0.0
2018-Jun-18 12:27N 45°09' E 036°35'0 0.0
2018-Jun-18 11:12N 45°09' E 036°35'0 0.0
2018-Jun-18 10:57N 45°09' E 036°35'1 0.0
2018-Jun-16 17:34N 45°08' E 036°36'0 0.0
2018-Jun-16 14:28N 45°08' E 036°36'0 0.0
2018-Jun-16 13:25N 45°08' E 036°36'0 0.0
2018-Jun-16 09:22N 45°08' E 036°36'0 0.0
2018-Jun-16 07:22N 45°08' E 036°36'0 0.0
2018-Jun-16 06:58N 45°08' E 036°36'0 0.0
2018-Jun-16 04:48N 45°08' E 036°36'0 0.0
2018-Jun-16 04:12N 45°08' E 036°36'0 0.1
2018-Jun-16 03:57N 45°08' E 036°36'0 0.0
2018-Jun-15 22:30N 45°08' E 036°36'0 0.0
2018-Jun-15 22:00N 45°08' E 036°36'0 0.0
2018-Jun-15 21:21N 45°08' E 036°36'0 0.0
2018-Jun-15 20:54N 45°08' E 036°36'0 0.0
2018-Jun-15 19:45N 45°08' E 036°36'0 0.0
2018-Jun-15 15:42N 45°08' E 036°36'0 0.0
2018-Jun-15 15:27N 45°08' E 036°36'0 0.0
2018-Jun-15 12:48N 45°08' E 036°36'0 0.0
2018-Jun-15 11:18N 45°08' E 036°36'0 0.0
2018-Jun-15 06:21N 45°08' E 036°36'0 0.0
2018-Jun-15 06:00N 45°08' E 036°36'1 1.1
2018-Jun-15 05:29N 45°08' E 036°35'1 0.7
2018-Jun-15 04:40N 45°08' E 036°36'0 0.0
2018-Jun-15 04:28N 45°08' E 036°36'0 0.0
2018-Jun-15 03:58N 45°08' E 036°36'0 0.0
2018-Jun-15 03:22N 45°08' E 036°36'0 0.0
2018-Jun-15 02:58N 45°08' E 036°36'0 0.0
2018-Jun-15 02:10N 45°08' E 036°36'0 0.0
2018-Jun-15 01:52N 45°08' E 036°36'0 0.0
2018-Jun-15 01:22N 45°08' E 036°36'0 0.0
2018-Jun-15 00:22N 45°08' E 036°36'0 0.0
2018-Jun-14 23:58N 45°08' E 036°36'0 0.0
2018-Jun-14 23:28N 45°08' E 036°36'0 0.0
2018-Jun-14 22:59N 45°08' E 036°36'0 0.0
2018-Jun-14 22:28N 45°08' E 036°36'0 0.0
2018-Jun-14 21:10N 45°08' E 036°36'0 0.2
2018-Jun-14 20:50N 45°08' E 036°36'2 5.4
2018-Jun-14 20:27N 45°09' E 036°33'4 9.4
2018-Jun-14 20:00N 45°12' E 036°29'4 8.7
2018-Jun-14 19:30N 45°16' E 036°27'1 0.1
2018-Jun-14 07:43N 45°17' E 036°25'4 7.5
2018-Jun-14 07:10N 45°13' E 036°28'2 9.4
2018-Jun-14 06:58N 45°11' E 036°29'4 9.2
2018-Jun-14 06:31N 45°08' E 036°33'1 0.1
2018-Jun-13 18:35N 45°09' E 036°34'0 0.1
2018-Jun-13 18:27N 45°09' E 036°34'1 2.8
2018-Jun-13 17:59N 45°08' E 036°36'0 0.0
2018-Jun-13 17:19N 45°08' E 036°36'0 0.0
2018-Jun-13 17:00N 45°08' E 036°36'0 0.0
2018-Jun-13 16:28N 45°08' E 036°36'0 0.0
2018-Jun-13 15:57N 45°08' E 036°36'0 0.0
2018-Jun-13 15:19N 45°08' E 036°36'0 0.0
2018-Jun-13 15:00N 45°08' E 036°36'0 0.0
2018-Jun-13 14:30N 45°08' E 036°36'0 0.0
2018-Jun-13 14:00N 45°08' E 036°36'0 0.0
2018-Jun-13 13:30N 45°08' E 036°36'0 0.0
2018-Jun-13 13:00N 45°08' E 036°36'0 0.0
2018-Jun-13 12:30N 45°08' E 036°36'3 6.5
2018-Jun-13 12:00N 45°10' E 036°32'2 3.0
2018-Jun-13 11:30N 45°08' E 036°32'0 0.8
2018-Jun-13 11:00N 45°08' E 036°33'2 3.4
2018-Jun-13 10:30N 45°07' E 036°33'2 3.6
2018-Jun-13 09:53N 45°08' E 036°36'0 0.2
2018-Jun-13 09:30N 45°08' E 036°36'0 0.0
2018-Jun-13 06:15N 45°08' E 036°36'0 0.0
2018-Jun-13 05:45N 45°08' E 036°36'0 0.0
2018-Jun-13 05:30N 45°08' E 036°36'0 0.0
2018-Jun-13 04:57N 45°08' E 036°36'1 0.8
2018-Jun-13 03:49N 45°08' E 036°34'1 3.4
2018-Jun-13 03:30N 45°08' E 036°33'2 3.6
2018-Jun-13 02:56N 45°08' E 036°36'0 0.0
2018-Jun-13 02:29N 45°08' E 036°36'0 0.0
2018-Jun-13 01:53N 45°08' E 036°36'0 0.0
2018-Jun-13 01:29N 45°08' E 036°36'0 0.0
2018-Jun-13 00:59N 45°08' E 036°36'0 0.0
2018-Jun-13 00:29N 45°08' E 036°36'0 0.0
2018-Jun-12 23:59N 45°08' E 036°36'0 0.0
2018-Jun-12 15:08N 45°08' E 036°36'0 0.0
2018-Jun-12 13:20N 45°08' E 036°36'0 0.0
2018-Jun-12 12:56N 45°08' E 036°36'1 2.0
2018-Jun-12 12:30N 45°07' E 036°35'1 1.1
2018-Jun-12 11:36N 45°07' E 036°34'0 0.2
2018-Jun-12 10:57N 45°07' E 036°34'2 3.9
2018-Jun-12 10:28N 45°08' E 036°36'0 0.0
2018-Jun-11 16:33N 45°08' E 036°36'0 0.0
2018-Jun-11 16:04N 45°08' E 036°36'0 0.6
2018-Jun-11 15:14N 45°08' E 036°35'0 0.1
2018-Jun-11 09:14N 45°08' E 036°36'  

Dump ship's entire track history